sensor_id;sensor_type;location;lat;lon;timestamp;pressure;altitude;pressure_sealevel;temperature;humidity
33422;BME280;19763;55.798;37.782;2023-04-23T00:01:25;149657.97;;;9.40;56.94
33422;BME280;19763;55.798;37.782;2023-04-23T00:03:54;149673.31;;;9.46;57.58
33422;BME280;19763;55.798;37.782;2023-04-23T00:06:21;149670.78;;;9.45;57.63
33422;BME280;19763;55.798;37.782;2023-04-23T00:08:49;149651.53;;;9.37;57.76
33422;BME280;19763;55.798;37.782;2023-04-23T00:11:17;149678.47;;;9.48;57.00
33422;BME280;19763;55.798;37.782;2023-04-23T00:13:43;149672.06;;;9.45;57.76
33422;BME280;19763;55.798;37.782;2023-04-23T00:16:12;149659.22;;;9.40;57.47
33422;BME280;19763;55.798;37.782;2023-04-23T00:18:37;149634.88;;;9.30;57.20
33422;BME280;19763;55.798;37.782;2023-04-23T00:21:03;149624.66;;;9.26;58.05
33422;BME280;19763;55.798;37.782;2023-04-23T00:23:29;149619.50;;;9.24;58.15
33422;BME280;19763;55.798;37.782;2023-04-23T00:25:55;149633.63;;;9.30;57.73
33422;BME280;19763;55.798;37.782;2023-04-23T00:28:20;149627.19;;;9.27;57.68
33422;BME280;19763;55.798;37.782;2023-04-23T00:30:46;149616.94;;;9.23;57.98
33422;BME280;19763;55.798;37.782;2023-04-23T00:33:12;149614.41;;;9.22;58.32
33422;BME280;19763;55.798;37.782;2023-04-23T00:35:37;149597.75;;;9.15;57.43
33422;BME280;19763;55.798;37.782;2023-04-23T00:38:03;149608.00;;;9.20;57.46
33422;BME280;19763;55.798;37.782;2023-04-23T00:40:29;149613.09;;;9.22;58.27
33422;BME280;19763;55.798;37.782;2023-04-23T00:42:55;149575.97;;;9.07;58.34
33422;BME280;19763;55.798;37.782;2023-04-23T00:45:22;149577.25;;;9.07;58.39
33422;BME280;19763;55.798;37.782;2023-04-23T00:47:48;149575.97;;;9.07;58.18
33422;BME280;19763;55.798;37.782;2023-04-23T00:50:14;149567.00;;;9.03;58.04
33422;BME280;19763;55.798;37.782;2023-04-23T00:52:40;149556.72;;;8.99;58.19
33422;BME280;19763;55.798;37.782;2023-04-23T00:55:06;149581.06;;;9.09;59.31
33422;BME280;19763;55.798;37.782;2023-04-23T00:57:34;149552.91;;;8.97;58.84
33422;BME280;19763;55.798;37.782;2023-04-23T01:00:01;149559.31;;;9.00;59.04
33422;BME280;19763;55.798;37.782;2023-04-23T01:02:29;149554.22;;;8.98;58.39
33422;BME280;19763;55.798;37.782;2023-04-23T01:04:56;149559.31;;;9.00;60.01
33422;BME280;19763;55.798;37.782;2023-04-23T01:07:23;149551.63;;;8.97;59.22
33422;BME280;19763;55.798;37.782;2023-04-23T01:09:49;149559.31;;;9.00;58.76
33422;BME280;19763;55.798;37.782;2023-04-23T01:12:16;149547.78;;;8.95;58.57
33422;BME280;19763;55.798;37.782;2023-04-23T01:14:42;149551.63;;;8.97;58.87
33422;BME280;19763;55.798;37.782;2023-04-23T01:17:08;149549.06;;;8.96;59.66
33422;BME280;19763;55.798;37.782;2023-04-23T01:19:36;149524.72;;;8.86;58.95
33422;BME280;19763;55.798;37.782;2023-04-23T01:22:07;149481.19;;;8.69;60.44
33422;BME280;19763;55.798;37.782;2023-04-23T01:24:33;149492.69;;;8.73;60.41
33422;BME280;19763;55.798;37.782;2023-04-23T01:26:58;149490.19;;;8.72;60.33
33422;BME280;19763;55.798;37.782;2023-04-23T01:29:24;149508.09;;;8.79;59.44
33422;BME280;19763;55.798;37.782;2023-04-23T01:31:50;149500.38;;;8.76;60.71
33422;BME280;19763;55.798;37.782;2023-04-23T01:34:17;149510.63;;;8.80;60.52
33422;BME280;19763;55.798;37.782;2023-04-23T01:36:43;149509.38;;;8.80;60.41
33422;BME280;19763;55.798;37.782;2023-04-23T01:39:09;149488.88;;;8.72;60.79
33422;BME280;19763;55.798;37.782;2023-04-23T01:41:36;149464.53;;;8.62;59.75
33422;BME280;19763;55.798;37.782;2023-04-23T01:44:01;149462.00;;;8.61;60.25
33422;BME280;19763;55.798;37.782;2023-04-23T01:46:27;149473.50;;;8.66;60.16
33422;BME280;19763;55.798;37.782;2023-04-23T01:48:53;149473.50;;;8.66;59.70
33422;BME280;19763;55.798;37.782;2023-04-23T01:51:19;149464.53;;;8.62;60.83
33422;BME280;19763;55.798;37.782;2023-04-23T01:53:44;149469.69;;;8.64;60.27
33422;BME280;19763;55.798;37.782;2023-04-23T01:56:10;149474.78;;;8.66;60.60
33422;BME280;19763;55.798;37.782;2023-04-23T01:58:36;149483.75;;;8.70;60.15
33422;BME280;19763;55.798;37.782;2023-04-23T02:01:02;149479.94;;;8.68;60.60
33422;BME280;19763;55.798;37.782;2023-04-23T02:03:28;149467.09;;;8.63;59.73
33422;BME280;19763;55.798;37.782;2023-04-23T02:05:54;149441.50;;;8.53;60.51
33422;BME280;19763;55.798;37.782;2023-04-23T02:08:21;149433.84;;;8.50;61.24
33422;BME280;19763;55.798;37.782;2023-04-23T02:10:47;149438.94;;;8.52;61.00
33422;BME280;19763;55.798;37.782;2023-04-23T02:13:12;149441.50;;;8.53;59.90
33422;BME280;19763;55.798;37.782;2023-04-23T02:15:39;149418.38;;;8.43;60.14
33422;BME280;19763;55.798;37.782;2023-04-23T02:18:05;149426.16;;;8.46;60.36
33422;BME280;19763;55.798;37.782;2023-04-23T02:20:31;149428.69;;;8.48;61.49
33422;BME280;19763;55.798;37.782;2023-04-23T02:22:56;149427.41;;;8.47;60.49
33422;BME280;19763;55.798;37.782;2023-04-23T02:25:22;149430.00;;;8.48;60.05
33422;BME280;19763;55.798;37.782;2023-04-23T02:27:48;149427.41;;;8.47;61.51
33422;BME280;19763;55.798;37.782;2023-04-23T02:30:14;149409.44;;;8.40;60.77
33422;BME280;19763;55.798;37.782;2023-04-23T02:32:40;149422.28;;;8.45;60.30
33422;BME280;19763;55.798;37.782;2023-04-23T02:35:07;149421.00;;;8.44;59.45
33422;BME280;19763;55.798;37.782;2023-04-23T02:37:35;149441.50;;;8.53;60.61
33422;BME280;19763;55.798;37.782;2023-04-23T02:40:01;149435.09;;;8.50;60.22
33422;BME280;19763;55.798;37.782;2023-04-23T02:42:28;149446.59;;;8.55;60.62
33422;BME280;19763;55.798;37.782;2023-04-23T02:44:54;149454.28;;;8.58;60.41
33422;BME280;19763;55.798;37.782;2023-04-23T02:47:20;149467.09;;;8.63;61.47
33422;BME280;19763;55.798;37.782;2023-04-23T02:49:45;149478.63;;;8.68;60.34
33422;BME280;19763;55.798;37.782;2023-04-23T02:52:11;149482.44;;;8.69;60.93
33422;BME280;19763;55.798;37.782;2023-04-23T02:54:37;149495.28;;;8.74;61.11
33422;BME280;19763;55.798;37.782;2023-04-23T02:57:03;149504.25;;;8.78;60.92
33422;BME280;19763;55.798;37.782;2023-04-23T02:59:29;149500.38;;;8.76;60.15
33422;BME280;19763;55.798;37.782;2023-04-23T03:01:55;149532.44;;;8.89;60.48
33422;BME280;19763;55.798;37.782;2023-04-23T03:04:20;149555.47;;;8.98;60.76
33422;BME280;19763;55.798;37.782;2023-04-23T03:06:46;149592.59;;;9.13;59.84
33422;BME280;19763;55.798;37.782;2023-04-23T03:09:12;149643.88;;;9.34;60.06
33422;BME280;19763;55.798;37.782;2023-04-23T03:11:38;149678.47;;;9.48;58.46
33422;BME280;19763;55.798;37.782;2023-04-23T03:14:04;149720.75;;;9.65;58.72
33422;BME280;19763;55.798;37.782;2023-04-23T03:16:30;149855.34;;;10.19;57.25
33422;BME280;19763;55.798;37.782;2023-04-23T03:18:56;149872.00;;;10.26;57.16
33422;BME280;19763;55.798;37.782;2023-04-23T03:21:22;149977.22;;;10.68;56.77
33422;BME280;19763;55.798;37.782;2023-04-23T03:23:48;150064.41;;;11.03;55.65
33422;BME280;19763;55.798;37.782;2023-04-23T03:26:13;150109.31;;;11.21;55.94
33422;BME280;19763;55.798;37.782;2023-04-23T03:28:40;150208.16;;;11.61;54.46
33422;BME280;19763;55.798;37.782;2023-04-23T03:31:06;150308.31;;;12.01;53.72
33422;BME280;19763;55.798;37.782;2023-04-23T03:33:31;150254.34;;;11.79;54.85
33422;BME280;19763;55.798;37.782;2023-04-23T03:35:57;150267.22;;;11.84;55.41
33422;BME280;19763;55.798;37.782;2023-04-23T03:38:23;150287.72;;;11.92;54.02
33422;BME280;19763;55.798;37.782;2023-04-23T03:40:48;150372.50;;;12.26;54.76
33422;BME280;19763;55.798;37.782;2023-04-23T03:43:14;150486.81;;;12.72;52.53
33422;BME280;19763;55.798;37.782;2023-04-23T03:45:39;150540.78;;;12.94;51.11
33422;BME280;19763;55.798;37.782;2023-04-23T03:48:05;150678.31;;;13.49;50.63
33422;BME280;19763;55.798;37.782;2023-04-23T03:50:30;150643.59;;;13.35;50.51
33422;BME280;19763;55.798;37.782;2023-04-23T03:52:59;150614.00;;;13.23;50.27
33422;BME280;19763;55.798;37.782;2023-04-23T03:55:25;150608.88;;;13.21;48.46
33422;BME280;19763;55.798;37.782;2023-04-23T03:57:50;150599.88;;;13.18;51.22
33422;BME280;19763;55.798;37.782;2023-04-23T04:00:16;150596.03;;;13.16;51.66
33422;BME280;19763;55.798;37.782;2023-04-23T04:02:42;150598.59;;;13.17;51.72
33422;BME280;19763;55.798;37.782;2023-04-23T04:05:07;150589.59;;;13.13;52.30
33422;BME280;19763;55.798;37.782;2023-04-23T04:07:36;150601.19;;;13.18;50.16
33422;BME280;19763;55.798;37.782;2023-04-23T04:10:04;150593.44;;;13.15;51.33
33422;BME280;19763;55.798;37.782;2023-04-23T04:12:30;150593.44;;;13.15;50.27
33422;BME280;19763;55.798;37.782;2023-04-23T04:14:55;150571.59;;;13.06;51.80
33422;BME280;19763;55.798;37.782;2023-04-23T04:17:21;150588.31;;;13.13;49.77
33422;BME280;19763;55.798;37.782;2023-04-23T04:19:47;150598.59;;;13.17;50.21
33422;BME280;19763;55.798;37.782;2023-04-23T04:22:13;150617.84;;;13.25;50.51
33422;BME280;19763;55.798;37.782;2023-04-23T04:24:38;150630.72;;;13.30;48.69
33422;BME280;19763;55.798;37.782;2023-04-23T04:27:06;150662.91;;;13.43;48.00
33422;BME280;19763;55.798;37.782;2023-04-23T04:29:32;150714.28;;;13.63;51.67
33422;BME280;19763;55.798;37.782;2023-04-23T04:31:58;150740.03;;;13.74;49.06
33422;BME280;19763;55.798;37.782;2023-04-23T04:34:24;150761.88;;;13.83;50.33
33422;BME280;19763;55.798;37.782;2023-04-23T04:36:50;150786.31;;;13.92;52.82
33422;BME280;19763;55.798;37.782;2023-04-23T04:39:19;150795.28;;;13.96;47.07
33422;BME280;19763;55.798;37.782;2023-04-23T04:41:45;150796.56;;;13.96;44.74
33422;BME280;19763;55.798;37.782;2023-04-23T04:44:11;150779.88;;;13.90;43.40
33422;BME280;19763;55.798;37.782;2023-04-23T04:46:39;150839.00;;;14.13;44.35
33422;BME280;19763;55.798;37.782;2023-04-23T04:49:08;150853.16;;;14.19;46.51
33422;BME280;19763;55.798;37.782;2023-04-23T04:51:36;150880.16;;;14.30;45.28
33422;BME280;19763;55.798;37.782;2023-04-23T04:54:02;150877.59;;;14.29;47.94
33422;BME280;19763;55.798;37.782;2023-04-23T04:56:28;150884.03;;;14.31;46.68
33422;BME280;19763;55.798;37.782;2023-04-23T04:58:53;150917.44;;;14.45;46.59
33422;BME280;19763;55.798;37.782;2023-04-23T05:01:20;150936.75;;;14.53;46.67
33422;BME280;19763;55.798;37.782;2023-04-23T05:03:48;150958.63;;;14.61;46.66
33422;BME280;19763;55.798;37.782;2023-04-23T05:06:14;150980.53;;;14.70;46.42
33422;BME280;19763;55.798;37.782;2023-04-23T05:08:40;151010.09;;;14.82;44.70
33422;BME280;19763;55.798;37.782;2023-04-23T05:11:07;151015.28;;;14.84;43.69
33422;BME280;19763;55.798;37.782;2023-04-23T05:13:32;151025.59;;;14.88;43.88
33422;BME280;19763;55.798;37.782;2023-04-23T05:15:58;151037.16;;;14.93;43.99
33422;BME280;19763;55.798;37.782;2023-04-23T05:18:24;151019.13;;;14.86;42.36
33422;BME280;19763;55.798;37.782;2023-04-23T05:20:49;151005.00;;;14.80;41.04
33422;BME280;19763;55.798;37.782;2023-04-23T05:23:15;151037.16;;;14.93;41.44
33422;BME280;19763;55.798;37.782;2023-04-23T05:25:41;151052.56;;;14.99;41.97
33422;BME280;19763;55.798;37.782;2023-04-23T05:28:06;151035.88;;;14.92;42.05
33422;BME280;19763;55.798;37.782;2023-04-23T05:30:33;151043.59;;;14.95;41.13
33422;BME280;19763;55.798;37.782;2023-04-23T05:32:58;151097.63;;;15.17;41.23
33422;BME280;19763;55.798;37.782;2023-04-23T05:35:24;151107.94;;;15.21;41.06
33422;BME280;19763;55.798;37.782;2023-04-23T05:37:50;151138.84;;;15.33;40.73
33422;BME280;19763;55.798;37.782;2023-04-23T05:40:15;151145.22;;;15.36;41.32
33422;BME280;19763;55.798;37.782;2023-04-23T05:42:41;151136.25;;;15.32;40.73
33422;BME280;19763;55.798;37.782;2023-04-23T05:45:07;151158.13;;;15.41;39.83
33422;BME280;19763;55.798;37.782;2023-04-23T05:47:33;151200.59;;;15.58;39.47
33422;BME280;19763;55.798;37.782;2023-04-23T05:50:00;151198.00;;;15.57;39.11
33422;BME280;19763;55.798;37.782;2023-04-23T05:52:28;151252.13;;;15.79;39.02
33422;BME280;19763;55.798;37.782;2023-04-23T05:54:59;151319.06;;;16.05;38.64
33422;BME280;19763;55.798;37.782;2023-04-23T05:57:25;151339.69;;;16.14;36.80
33422;BME280;19763;55.798;37.782;2023-04-23T05:59:51;151347.41;;;16.17;36.77
33422;BME280;19763;55.798;37.782;2023-04-23T06:02:16;151567.75;;;17.05;36.71
33422;BME280;19763;55.798;37.782;2023-04-23T06:04:42;151570.34;;;17.06;36.34
33422;BME280;19763;55.798;37.782;2023-04-23T06:07:07;151544.53;;;16.96;35.31
33422;BME280;19763;55.798;37.782;2023-04-23T06:09:33;151592.22;;;17.15;35.68
33422;BME280;19763;55.798;37.782;2023-04-23T06:11:59;151655.34;;;17.40;36.02
33422;BME280;19763;55.798;37.782;2023-04-23T06:14:25;151687.56;;;17.53;35.81
33422;BME280;19763;55.798;37.782;2023-04-23T06:16:50;151728.84;;;17.69;34.92
33422;BME280;19763;55.798;37.782;2023-04-23T06:19:16;151799.81;;;17.98;34.75
33422;BME280;19763;55.798;37.782;2023-04-23T06:21:42;151844.97;;;18.16;33.91
33422;BME280;19763;55.798;37.782;2023-04-23T06:24:07;151824.31;;;18.07;33.55
33422;BME280;19763;55.798;37.782;2023-04-23T06:26:33;151823.00;;;18.07;33.19
33422;BME280;19763;55.798;37.782;2023-04-23T06:28:59;151886.19;;;18.32;33.52
33422;BME280;19763;55.798;37.782;2023-04-23T06:31:25;151883.63;;;18.31;32.95
33422;BME280;19763;55.798;37.782;2023-04-23T06:33:51;151881.06;;;18.30;32.72
33422;BME280;19763;55.798;37.782;2023-04-23T06:36:16;151919.78;;;18.45;33.09
33422;BME280;19763;55.798;37.782;2023-04-23T06:38:42;151897.78;;;18.37;33.61
33422;BME280;19763;55.798;37.782;2023-04-23T06:41:10;151931.38;;;18.50;32.56
33422;BME280;19763;55.798;37.782;2023-04-23T06:43:35;151968.75;;;18.65;33.23
33422;BME280;19763;55.798;37.782;2023-04-23T06:46:01;152020.38;;;18.86;31.95
33422;BME280;19763;55.798;37.782;2023-04-23T06:48:26;151982.94;;;18.71;31.90
33422;BME280;19763;55.798;37.782;2023-04-23T06:50:52;151933.91;;;18.51;32.27
33422;BME280;19763;55.798;37.782;2023-04-23T06:53:18;151906.84;;;18.40;32.37
33422;BME280;19763;55.798;37.782;2023-04-23T06:55:43;151975.22;;;18.68;32.31
33422;BME280;19763;55.798;37.782;2023-04-23T06:58:09;152015.19;;;18.84;32.04
33422;BME280;19763;55.798;37.782;2023-04-23T07:00:35;152043.63;;;18.95;31.53
33422;BME280;19763;55.798;37.782;2023-04-23T07:03:01;152064.28;;;19.03;31.26
33422;BME280;19763;55.798;37.782;2023-04-23T07:05:27;152043.63;;;18.95;31.82
33422;BME280;19763;55.798;37.782;2023-04-23T07:07:52;152052.69;;;18.99;31.15
33422;BME280;19763;55.798;37.782;2023-04-23T07:10:18;152117.19;;;19.24;32.05
33422;BME280;19763;55.798;37.782;2023-04-23T07:12:45;152065.56;;;19.04;31.75
33422;BME280;19763;55.798;37.782;2023-04-23T07:15:10;152095.28;;;19.16;31.36
33422;BME280;19763;55.798;37.782;2023-04-23T07:17:36;152053.97;;;18.99;31.76
33422;BME280;19763;55.798;37.782;2023-04-23T07:20:02;152072.03;;;19.06;31.25
33422;BME280;19763;55.798;37.782;2023-04-23T07:22:31;152073.28;;;19.07;31.15
33422;BME280;19763;55.798;37.782;2023-04-23T07:24:57;152090.09;;;19.13;31.25
33422;BME280;19763;55.798;37.782;2023-04-23T07:27:23;152137.84;;;19.33;31.62
33422;BME280;19763;55.798;37.782;2023-04-23T07:29:49;152121.06;;;19.26;31.67
33422;BME280;19763;55.798;37.782;2023-04-23T07:32:14;152132.66;;;19.30;30.36
33422;BME280;19763;55.798;37.782;2023-04-23T07:34:40;152223.00;;;19.66;30.95
33422;BME280;19763;55.798;37.782;2023-04-23T07:37:06;152152.06;;;19.38;30.33
33422;BME280;19763;55.798;37.782;2023-04-23T07:39:32;152152.06;;;19.38;30.56
33422;BME280;19763;55.798;37.782;2023-04-23T07:41:57;152126.22;;;19.28;30.76
33422;BME280;19763;55.798;37.782;2023-04-23T07:44:23;152166.25;;;19.44;30.88
33422;BME280;19763;55.798;37.782;2023-04-23T07:46:49;152261.78;;;19.82;30.10
33422;BME280;19763;55.798;37.782;2023-04-23T07:49:15;152319.94;;;20.05;31.08
33422;BME280;19763;55.798;37.782;2023-04-23T07:51:40;152309.59;;;20.01;30.44
33422;BME280;19763;55.798;37.782;2023-04-23T07:54:07;152380.56;;;20.29;30.89
33422;BME280;19763;55.798;37.782;2023-04-23T07:56:33;152336.69;;;20.12;29.47
33422;BME280;19763;55.798;37.782;2023-04-23T07:58:59;152319.94;;;20.05;29.94
33422;BME280;19763;55.798;37.782;2023-04-23T08:01:25;152307.00;;;20.00;30.26
33422;BME280;19763;55.798;37.782;2023-04-23T08:03:51;152325.06;;;20.07;29.62
33422;BME280;19763;55.798;37.782;2023-04-23T08:06:16;152319.94;;;20.05;29.58
33422;BME280;19763;55.798;37.782;2023-04-23T08:08:43;152318.59;;;20.05;29.83
33422;BME280;19763;55.798;37.782;2023-04-23T08:11:09;152256.66;;;19.80;28.76
33422;BME280;19763;55.798;37.782;2023-04-23T08:13:35;152273.44;;;19.87;29.18
33422;BME280;19763;55.798;37.782;2023-04-23T08:16:01;152261.78;;;19.82;29.23
33422;BME280;19763;55.798;37.782;2023-04-23T08:18:27;152239.81;;;19.73;28.63
33422;BME280;19763;55.798;37.782;2023-04-23T08:20:53;152194.59;;;19.55;30.39
33422;BME280;19763;55.798;37.782;2023-04-23T08:23:19;152245.00;;;19.75;29.98
33422;BME280;19763;55.798;37.782;2023-04-23T08:25:44;152193.34;;;19.55;28.48
33422;BME280;19763;55.798;37.782;2023-04-23T08:28:10;152263.13;;;19.82;28.83
33422;BME280;19763;55.798;37.782;2023-04-23T08:30:36;152254.06;;;19.79;27.47
33422;BME280;19763;55.798;37.782;2023-04-23T08:33:01;152206.25;;;19.60;27.50
33422;BME280;19763;55.798;37.782;2023-04-23T08:35:27;152225.59;;;19.67;27.59
33422;BME280;19763;55.798;37.782;2023-04-23T08:37:52;152210.13;;;19.61;28.31
33422;BME280;19763;55.798;37.782;2023-04-23T08:40:18;152219.16;;;19.65;28.93
33422;BME280;19763;55.798;37.782;2023-04-23T08:42:50;152248.88;;;19.77;27.48
33422;BME280;19763;55.798;37.782;2023-04-23T08:45:17;152105.59;;;19.20;26.77
33422;BME280;19763;55.798;37.782;2023-04-23T08:47:43;152128.81;;;19.29;28.34
33422;BME280;19763;55.798;37.782;2023-04-23T08:50:13;152239.81;;;19.73;28.41
33422;BME280;19763;55.798;37.782;2023-04-23T08:52:48;152248.88;;;19.77;27.83
33422;BME280;19763;55.798;37.782;2023-04-23T08:55:15;152388.38;;;20.32;27.24
33422;BME280;19763;55.798;37.782;2023-04-23T08:57:45;152447.75;;;20.56;26.80
33422;BME280;19763;55.798;37.782;2023-04-23T09:00:11;152398.69;;;20.37;25.63
33422;BME280;19763;55.798;37.782;2023-04-23T09:02:42;152318.59;;;20.05;26.07
33422;BME280;19763;55.798;37.782;2023-04-23T09:05:09;152283.75;;;19.91;26.69
33422;BME280;19763;55.798;37.782;2023-04-23T09:07:35;152207.53;;;19.60;26.70
33422;BME280;19763;55.798;37.782;2023-04-23T09:10:06;152221.75;;;19.66;26.35
33422;BME280;19763;55.798;37.782;2023-04-23T09:12:34;152299.25;;;19.97;26.38
33422;BME280;19763;55.798;37.782;2023-04-23T09:15:02;152291.53;;;19.94;26.66
33422;BME280;19763;55.798;37.782;2023-04-23T09:17:35;152345.75;;;20.15;26.76
33422;BME280;19763;55.798;37.782;2023-04-23T09:20:02;152307.00;;;20.00;27.41
33422;BME280;19763;55.798;37.782;2023-04-23T09:22:46;152290.19;;;19.93;27.08
33422;BME280;19763;55.798;37.782;2023-04-23T09:25:16;152307.00;;;20.00;27.36
33422;BME280;19763;55.798;37.782;2023-04-23T09:27:44;152299.25;;;19.97;26.99
33422;BME280;19763;55.798;37.782;2023-04-23T09:30:10;152242.41;;;19.74;26.88
33422;BME280;19763;55.798;37.782;2023-04-23T09:32:41;152259.25;;;19.81;27.33
33422;BME280;19763;55.798;37.782;2023-04-23T09:35:12;152233.34;;;19.71;26.93
33422;BME280;19763;55.798;37.782;2023-04-23T09:37:40;152185.59;;;19.52;27.81
33422;BME280;19763;55.798;37.782;2023-04-23T09:40:07;152189.47;;;19.53;27.63
33422;BME280;19763;55.798;37.782;2023-04-23T09:42:34;152143.00;;;19.35;28.41
33422;BME280;19763;55.798;37.782;2023-04-23T09:45:05;152177.84;;;19.48;28.46
33422;BME280;19763;55.798;37.782;2023-04-23T09:47:33;152243.69;;;19.75;27.43
33422;BME280;19763;55.798;37.782;2023-04-23T09:49:59;152223.00;;;19.66;27.53
33422;BME280;19763;55.798;37.782;2023-04-23T09:52:25;152215.28;;;19.63;26.76
33422;BME280;19763;55.798;37.782;2023-04-23T09:54:51;152291.53;;;19.94;27.60
33422;BME280;19763;55.798;37.782;2023-04-23T09:57:17;152312.16;;;20.02;27.74
33422;BME280;19763;55.798;37.782;2023-04-23T09:59:45;152287.59;;;19.92;28.14
33422;BME280;19763;55.798;37.782;2023-04-23T10:02:11;152265.66;;;19.83;26.80
33422;BME280;19763;55.798;37.782;2023-04-23T10:04:37;152247.53;;;19.76;27.45
33422;BME280;19763;55.798;37.782;2023-04-23T10:07:04;152255.34;;;19.79;27.45
33422;BME280;19763;55.798;37.782;2023-04-23T10:09:33;152282.47;;;19.90;27.50
33422;BME280;19763;55.798;37.782;2023-04-23T10:12:00;152242.41;;;19.74;26.75
33422;BME280;19763;55.798;37.782;2023-04-23T10:14:27;152211.41;;;19.62;27.00
33422;BME280;19763;55.798;37.782;2023-04-23T10:16:58;152179.13;;;19.49;27.16
33422;BME280;19763;55.798;37.782;2023-04-23T10:19:25;152139.13;;;19.33;27.56
33422;BME280;19763;55.798;37.782;2023-04-23T10:21:57;152164.94;;;19.43;27.10
33422;BME280;19763;55.798;37.782;2023-04-23T10:24:27;152228.19;;;19.69;27.50
33422;BME280;19763;55.798;37.782;2023-04-23T10:26:56;152259.25;;;19.81;27.27
33422;BME280;19763;55.798;37.782;2023-04-23T10:29:26;152285.06;;;19.91;27.24
33422;BME280;19763;55.798;37.782;2023-04-23T10:31:54;152235.94;;;19.72;27.06
33422;BME280;19763;55.798;37.782;2023-04-23T10:34:20;152291.53;;;19.94;27.90
33422;BME280;19763;55.798;37.782;2023-04-23T10:36:50;152264.38;;;19.83;26.73
33422;BME280;19763;55.798;37.782;2023-04-23T10:39:17;152281.19;;;19.90;27.07
33422;BME280;19763;55.798;37.782;2023-04-23T10:41:43;152277.31;;;19.88;27.19
33422;BME280;19763;55.798;37.782;2023-04-23T10:44:13;152318.59;;;20.05;27.64
33422;BME280;19763;55.798;37.782;2023-04-23T10:46:49;152318.59;;;20.05;27.22
33422;BME280;19763;55.798;37.782;2023-04-23T10:49:15;152312.16;;;20.02;26.88
33422;BME280;19763;55.798;37.782;2023-04-23T10:51:41;152356.09;;;20.20;28.50
33422;BME280;19763;55.798;37.782;2023-04-23T10:54:12;152374.16;;;20.27;27.54
33422;BME280;19763;55.798;37.782;2023-04-23T10:56:42;152332.81;;;20.10;27.52
33422;BME280;19763;55.798;37.782;2023-04-23T10:59:20;152295.41;;;19.95;26.03
33422;BME280;19763;55.798;37.782;2023-04-23T11:01:46;152322.47;;;20.06;27.30
33422;BME280;19763;55.798;37.782;2023-04-23T11:04:25;152301.81;;;19.98;26.61
33422;BME280;19763;55.798;37.782;2023-04-23T11:06:54;152277.31;;;19.88;27.39
33422;BME280;19763;55.798;37.782;2023-04-23T11:11:59;152277.31;;;19.88;26.46
33422;BME280;19763;55.798;37.782;2023-04-23T11:16:58;152332.81;;;20.10;26.86
33422;BME280;19763;55.798;37.782;2023-04-23T11:19:24;152245.00;;;19.75;26.78
33422;BME280;19763;55.798;37.782;2023-04-23T11:24:36;152340.56;;;20.13;26.50
33422;BME280;19763;55.798;37.782;2023-04-23T11:27:11;152199.81;;;19.57;26.80
33422;BME280;19763;55.798;37.782;2023-04-23T11:29:38;152259.25;;;19.81;27.88
33422;BME280;19763;55.798;37.782;2023-04-23T11:32:05;152285.06;;;19.91;26.46
33422;BME280;19763;55.798;37.782;2023-04-23T11:34:42;152296.66;;;19.96;26.70
33422;BME280;19763;55.798;37.782;2023-04-23T11:37:15;152339.28;;;20.13;26.81
33422;BME280;19763;55.798;37.782;2023-04-23T11:39:43;152356.09;;;20.20;26.54
33422;BME280;19763;55.798;37.782;2023-04-23T11:42:10;152387.03;;;20.32;26.78
33422;BME280;19763;55.798;37.782;2023-04-23T11:44:39;152389.63;;;20.33;26.34
33422;BME280;19763;55.798;37.782;2023-04-23T11:47:10;152405.13;;;20.39;26.73
33422;BME280;19763;55.798;37.782;2023-04-23T11:49:37;152389.63;;;20.33;26.61
33422;BME280;19763;55.798;37.782;2023-04-23T11:52:04;152390.91;;;20.33;26.37
33422;BME280;19763;55.798;37.782;2023-04-23T11:54:30;152350.91;;;20.17;26.93
33422;BME280;19763;55.798;37.782;2023-04-23T11:56:56;152347.03;;;20.16;27.25
33422;BME280;19763;55.798;37.782;2023-04-23T11:59:23;152398.69;;;20.37;26.81
33422;BME280;19763;55.798;37.782;2023-04-23T12:01:51;152449.06;;;20.57;26.74
33422;BME280;19763;55.798;37.782;2023-04-23T12:04:22;152356.09;;;20.20;26.46
33422;BME280;19763;55.798;37.782;2023-04-23T12:06:50;152415.47;;;20.43;26.64
33422;BME280;19763;55.798;37.782;2023-04-23T12:09:17;152456.81;;;20.60;26.57
33422;BME280;19763;55.798;37.782;2023-04-23T12:11:44;152409.00;;;20.41;27.71
33422;BME280;19763;55.798;37.782;2023-04-23T12:14:12;152334.09;;;20.11;26.41
33422;BME280;19763;55.798;37.782;2023-04-23T12:16:42;152339.28;;;20.13;26.67
33422;BME280;19763;55.798;37.782;2023-04-23T12:19:12;152347.03;;;20.16;27.96
33422;BME280;19763;55.798;37.782;2023-04-23T12:21:52;152339.28;;;20.13;27.36
33422;BME280;19763;55.798;37.782;2023-04-23T12:24:25;152343.16;;;20.14;26.86
33422;BME280;19763;55.798;37.782;2023-04-23T12:26:57;152343.16;;;20.14;27.07
33422;BME280;19763;55.798;37.782;2023-04-23T12:29:25;152376.72;;;20.28;27.48
33422;BME280;19763;55.798;37.782;2023-04-23T12:31:52;152388.38;;;20.32;26.54
33422;BME280;19763;55.798;37.782;2023-04-23T12:34:21;152375.44;;;20.27;26.66
33422;BME280;19763;55.798;37.782;2023-04-23T12:36:48;152396.09;;;20.35;27.55
33422;BME280;19763;55.798;37.782;2023-04-23T12:39:26;152362.50;;;20.22;26.74
33422;BME280;19763;55.798;37.782;2023-04-23T12:41:57;152402.56;;;20.38;26.26
33422;BME280;19763;55.798;37.782;2023-04-23T12:44:34;152406.44;;;20.40;27.29
33422;BME280;19763;55.798;37.782;2023-04-23T12:47:09;152362.50;;;20.22;26.00
33422;BME280;19763;55.798;37.782;2023-04-23T12:49:38;152387.03;;;20.32;27.12